Аэропорт: Брянск. Брянск

ICAO: UUBP

METAR:
Информация по данной станции не доступна
METAR:
2019-07-23 13:50:00
TAF UUBP 231350Z 2315/2324 21006MPS 9999 BKN020 OVC070 TEMPO 2319/2321 -SHRA SCT007 BKN012CB